Hobby, TX

12:31 PM CST on February 12, 2016 (GMT -0600)
Hobby | | Change Station
CLOSE
Current Station
Airport
Location: Houston,
Elevation: 46 ft
Nearby Weather Stations

Elev 46 ft 29.64 °N, 95.28 °W | Updated 38 minutes ago

Partly Cloudy
Partly Cloudy
74 °F
Feels Like 74 °F
N
12
Wind Variable Wind from WSW

Today
High -- | Low -- °F
--% Chance of Precip.
Yesterday
High -- | Low -- °F
Precip. -- in
Pressure 30.26 in
Visibility 10.0 miles
Clouds Few 3000 ft
Dew Point 58 °F
Humidity 57%
Rainfall 0.01 in
Snow Depth Not available.
7:03 AM 6:07 PM
Waxing Crescent, 22% visible
METAR KHOU 121753Z 25010KT 10SM FEW030 23/14 A3024 RMK AO2 SLP245 T02330144 10233 20106 50001
Pressure 30.26 in
Visibility 10.0 miles
Clouds Few 3000 ft
Dew Point 58 °F
Humidity 57%
Rainfall 0.01 in
Snow Depth Not available.
7:03 AM 6:07 PM
Waxing Crescent, 22% visible
METAR KHOU 121753Z 25010KT 10SM FEW030 23/14 A3024 RMK AO2 SLP245 T02330144 10233 20106 50001

10-Day Weather Forecast

Almanac

Astronomy

Feb. 12, 2016 Rise Set
Actual Time
Civil Twilight
Nautical Twilight
Astronomical Twilight
Moon
Length of Visible Light
Length of Day
Tomorrow will be .
, % of the Moon is Illuminated

Today's Extremes

State Highs State Lows

Community

WunderPhotos

Upload Photos

1,892,366 photos uploaded!

WunderBlog® & News

Nearby

Air Quality

  Air Quality AQ Index Pollutant
Not available.

Snow Depth

Station Depth Elevation

Earthquake Activity

City Distance Mag. Time & Date
Minimum magnitude displayed is 2.5.

Coastal Water Temperatures

Place Temperature

Stations

Nearby Weather Stations

Station Location Temp. Windchill Dew Point Humidity Wind Precip. Elev Updated Type
                   

Watches & Warnings

There are currently no watches in effect.